createdAt,value
2023-03-11T00:02:00.206Z,26.83
2023-03-11T00:04:32.301Z,26.77
2023-03-11T00:07:03.035Z,26.74
2023-03-11T00:09:33.402Z,26.76
2023-03-11T00:12:07.511Z,26.74
2023-03-11T00:14:37.670Z,26.77
2023-03-11T00:17:14.896Z,26.76
2023-03-11T00:27:57.349Z,26.76
2023-03-11T00:30:29.238Z,26.73
2023-03-11T00:33:02.081Z,26.74
2023-03-11T00:35:35.459Z,26.70
2023-03-11T00:38:08.933Z,26.71
2023-03-11T00:40:41.597Z,26.71
2023-03-11T00:43:14.001Z,26.68
2023-03-11T00:45:44.613Z,26.76
2023-03-11T00:48:16.891Z,26.77
2023-03-11T00:50:48.291Z,26.77
2023-03-11T00:53:19.389Z,26.76
2023-03-11T00:55:50.870Z,26.73
2023-03-11T00:58:22.880Z,26.76
2023-03-11T01:00:57.444Z,26.71
2023-03-11T01:03:27.775Z,26.71
2023-03-11T01:05:58.515Z,26.71
2023-03-11T01:08:29.090Z,26.70
2023-03-11T01:10:59.928Z,26.67
2023-03-11T01:13:32.017Z,26.71
2023-03-11T01:16:04.521Z,26.67
2023-03-11T01:18:34.981Z,26.65
2023-03-11T01:21:06.300Z,26.65
2023-03-11T01:23:37.468Z,26.70
2023-03-11T01:26:08.373Z,26.73
2023-03-11T01:28:39.260Z,26.74
2023-03-11T01:31:12.099Z,26.71
2023-03-11T01:33:43.219Z,26.70
2023-03-11T01:36:14.882Z,26.68
2023-03-11T01:38:46.046Z,26.70
2023-03-11T01:41:16.308Z,26.68
2023-03-11T01:43:47.475Z,26.68
2023-03-11T01:46:27.148Z,26.67
2023-03-11T01:49:01.337Z,26.68
2023-03-11T01:51:37.940Z,26.68
2023-03-11T01:54:16.760Z,26.67
2023-03-11T01:56:48.063Z,26.67
2023-03-11T01:59:24.824Z,26.64
2023-03-11T02:02:07.502Z,26.63
2023-03-11T02:04:39.412Z,26.60
2023-03-11T02:07:12.634Z,26.61
2023-03-11T02:09:43.744Z,26.63
2023-03-11T02:12:18.140Z,26.64
2023-03-11T02:14:52.690Z,26.65
2023-03-11T02:17:24.435Z,26.76
2023-03-11T02:20:14.585Z,26.71
2023-03-11T02:22:46.959Z,26.67
2023-03-11T02:25:24.144Z,26.64
2023-03-11T02:27:57.820Z,26.61
2023-03-11T02:30:31.060Z,26.57
2023-03-11T02:33:02.742Z,26.56
2023-03-11T02:35:33.964Z,26.53
2023-03-11T02:38:06.074Z,26.53
2023-03-11T02:41:09.174Z,26.54
2023-03-11T02:43:48.420Z,26.58
2023-03-11T02:46:21.615Z,26.58
2023-03-11T02:48:54.983Z,26.54
2023-03-11T02:51:26.710Z,26.50
2023-03-11T02:54:02.613Z,26.48
2023-03-11T02:56:34.803Z,26.46
2023-03-11T02:59:06.023Z,26.48
2023-03-11T03:01:38.511Z,26.47
2023-03-11T03:04:09.767Z,26.50
2023-03-11T03:06:42.180Z,26.48
2023-03-11T03:09:16.044Z,26.48
2023-03-11T03:15:00.743Z,26.43
2023-03-11T03:20:30.381Z,26.37
2023-03-11T03:23:46.803Z,26.33
2023-03-11T03:26:30.764Z,26.32
2023-03-11T03:29:06.168Z,26.27
2023-03-11T03:31:44.108Z,26.43
2023-03-11T03:34:17.820Z,26.30
2023-03-11T03:36:53.144Z,26.27
2023-03-11T03:39:24.561Z,26.22
2023-03-11T03:41:56.376Z,26.22
2023-03-11T03:44:38.785Z,26.19
2023-03-11T03:47:12.432Z,26.13
2023-03-11T03:49:43.891Z,26.05
2023-03-11T03:52:49.849Z,25.99
2023-03-11T03:55:22.692Z,25.93
2023-03-11T03:58:02.491Z,25.96
2023-03-11T04:00:46.704Z,25.93
2023-03-11T04:07:17.769Z,25.93
2023-03-11T04:16:37.418Z,25.89
2023-03-11T04:19:22.056Z,25.88
2023-03-11T04:21:54.315Z,25.86
2023-03-11T04:27:31.631Z,25.83
2023-03-11T04:30:45.607Z,25.82
2023-03-11T04:33:24.416Z,25.78
2023-03-11T04:41:50.009Z,25.72
2023-03-11T04:44:29.107Z,25.69
2023-03-11T04:47:02.379Z,25.68
2023-03-11T04:49:42.993Z,25.65
2023-03-11T04:52:19.826Z,25.65
2023-03-11T04:54:58.305Z,25.65
2023-03-11T04:57:33.638Z,25.59
2023-03-11T05:00:22.409Z,25.57
2023-03-11T05:02:55.819Z,25.46
2023-03-11T05:05:28.260Z,25.46
2023-03-11T05:08:07.057Z,25.46
2023-03-11T05:10:52.157Z,25.46
2023-03-11T05:13:27.485Z,25.46
2023-03-11T05:16:00.611Z,25.43
2023-03-11T05:18:33.398Z,25.38
2023-03-11T05:21:06.782Z,25.34
2023-03-11T05:23:42.412Z,25.31
2023-03-11T05:26:14.553Z,25.32
2023-03-11T05:28:48.887Z,25.28
2023-03-11T05:31:27.576Z,25.27
2023-03-11T05:34:00.030Z,25.28
2023-03-11T05:36:32.753Z,25.27
2023-03-11T05:39:06.437Z,25.25
2023-03-11T05:41:40.166Z,25.20
2023-03-11T05:44:17.424Z,25.15
2023-03-11T05:46:52.170Z,25.12
2023-03-11T05:49:24.501Z,25.17
2023-03-11T05:52:01.705Z,25.14
2023-03-11T05:54:36.338Z,25.14
2023-03-11T05:57:09.184Z,25.07
2023-03-11T05:59:47.274Z,25.03
2023-03-11T06:02:19.607Z,24.95
2023-03-11T06:08:23.544Z,24.95
2023-03-11T06:10:55.061Z,24.97
2023-03-11T06:13:26.554Z,24.94
2023-03-11T06:16:01.814Z,24.92
2023-03-11T06:18:36.961Z,24.95
2023-03-11T06:21:12.323Z,24.95
2023-03-11T06:23:43.651Z,24.94
2023-03-11T06:26:20.879Z,24.94
2023-03-11T06:28:56.607Z,24.90
2023-03-11T06:31:31.712Z,25.01
2023-03-11T06:34:08.829Z,24.95
2023-03-11T06:36:39.819Z,24.92
2023-03-11T06:39:14.956Z,24.90
2023-03-11T06:41:48.941Z,24.86
2023-03-11T06:44:22.880Z,24.81
2023-03-11T06:46:53.601Z,24.76
2023-03-11T06:49:26.038Z,24.79
2023-03-11T06:51:58.520Z,24.76
2023-03-11T06:54:32.569Z,24.70
2023-03-11T06:57:07.468Z,24.67
2023-03-11T06:59:39.207Z,24.73
2023-03-11T07:02:20.148Z,24.80
2023-03-11T07:04:54.571Z,24.81
2023-03-11T07:07:27.965Z,24.83
2023-03-11T07:10:02.603Z,24.80
2023-03-11T07:12:34.045Z,24.77
2023-03-11T07:15:09.233Z,24.70
2023-03-11T07:17:44.473Z,24.71
2023-03-11T07:20:19.213Z,24.66
2023-03-11T07:22:53.651Z,24.74
2023-03-11T07:25:27.550Z,24.67
2023-03-11T07:28:01.129Z,24.70
2023-03-11T07:30:31.795Z,24.69
2023-03-11T07:33:06.220Z,24.64
2023-03-11T07:35:39.552Z,24.64
2023-03-11T07:38:10.526Z,24.63
2023-03-11T07:40:42.018Z,24.61
2023-03-11T07:43:12.659Z,24.66
2023-03-11T07:45:48.111Z,24.63
2023-03-11T07:48:23.220Z,24.69
2023-03-11T07:51:05.985Z,24.67
2023-03-11T07:53:42.018Z,24.66
2023-03-11T07:56:15.398Z,24.64
2023-03-11T07:58:55.335Z,24.60
2023-03-11T08:01:32.861Z,24.57
2023-03-11T08:04:09.504Z,24.57
2023-03-11T08:06:47.149Z,24.56
2023-03-11T08:09:45.444Z,24.60
2023-03-11T08:12:21.221Z,24.55
2023-03-11T08:14:52.342Z,24.61
2023-03-11T08:17:22.675Z,24.55
2023-03-11T08:19:54.328Z,24.46
2023-03-11T08:22:25.393Z,24.47
2023-03-11T08:24:57.102Z,24.46
2023-03-11T08:27:32.321Z,24.41
2023-03-11T08:30:04.695Z,24.40
2023-03-11T08:32:36.974Z,24.40
2023-03-11T08:35:11.081Z,24.43
2023-03-11T08:37:41.906Z,24.40
2023-03-11T08:40:13.052Z,24.30
2023-03-11T08:42:44.527Z,24.33
2023-03-11T08:45:19.372Z,24.30
2023-03-11T08:47:51.994Z,24.30
2023-03-11T08:50:23.913Z,24.30
2023-03-11T08:52:56.295Z,24.32
2023-03-11T08:55:31.915Z,24.28
2023-03-11T08:58:05.532Z,24.23
2023-03-11T09:00:38.599Z,24.18
2023-03-11T09:03:10.524Z,24.10
2023-03-11T09:05:42.767Z,24.05
2023-03-11T09:08:14.394Z,24.02
2023-03-11T09:10:48.034Z,23.96
2023-03-11T09:13:18.971Z,23.96
2023-03-11T09:15:52.330Z,23.94
2023-03-11T09:18:23.709Z,23.88
2023-03-11T09:21:00.498Z,23.89
2023-03-11T09:23:32.913Z,23.89
2023-03-11T09:26:04.572Z,23.88
2023-03-11T09:28:36.384Z,23.85
2023-03-11T09:31:07.677Z,23.90
2023-03-11T09:33:43.891Z,23.92
2023-03-11T09:36:17.606Z,23.90
2023-03-11T09:38:51.553Z,23.89
2023-03-11T09:41:28.986Z,23.90
2023-03-11T09:44:18.651Z,24.05
2023-03-11T09:47:13.624Z,24.09
2023-03-11T09:49:59.524Z,24.22
2023-03-11T09:52:38.197Z,24.19
2023-03-11T09:55:41.465Z,24.33
2023-03-11T09:58:16.869Z,24.40
2023-03-11T10:00:48.912Z,24.43
2023-03-11T10:03:34.791Z,24.56
2023-03-11T10:06:29.123Z,24.56
2023-03-11T10:09:06.258Z,24.59
2023-03-11T10:12:21.057Z,24.80
2023-03-11T10:15:04.980Z,24.86
2023-03-11T10:18:04.184Z,24.91
2023-03-11T10:20:56.244Z,24.94
2023-03-11T10:23:56.826Z,25.04
2023-03-11T10:26:43.292Z,25.14
2023-03-11T10:29:27.195Z,25.24
2023-03-11T10:32:09.410Z,25.30
2023-03-11T10:34:48.353Z,25.34
2023-03-11T10:37:46.267Z,25.49
2023-03-11T10:40:42.648Z,27.14
2023-03-11T10:43:27.835Z,28.78
2023-03-11T10:45:59.209Z,29.33
2023-03-11T10:48:32.048Z,29.53
2023-03-11T10:51:17.797Z,29.78
2023-03-11T10:53:59.813Z,30.03
2023-03-11T10:56:32.699Z,29.98
2023-03-11T10:59:06.657Z,30.24
2023-03-11T11:01:38.636Z,30.08
2023-03-11T11:04:30.739Z,30.20
2023-03-11T11:07:22.002Z,30.35
2023-03-11T11:10:26.430Z,30.39
2023-03-11T11:13:07.929Z,30.58
2023-03-11T11:15:44.078Z,30.64
2023-03-11T11:18:20.580Z,30.52
2023-03-11T11:21:08.806Z,30.64
2023-03-11T11:23:53.037Z,30.78
2023-03-11T11:26:30.313Z,30.74
2023-03-11T11:29:19.883Z,30.79
2023-03-11T11:31:51.060Z,30.92
2023-03-11T11:34:31.990Z,31.13
2023-03-11T11:37:14.900Z,31.02
2023-03-11T11:39:57.688Z,30.76
2023-03-11T11:42:33.471Z,30.74
2023-03-11T11:45:20.299Z,30.85
2023-03-11T11:47:58.780Z,30.55
2023-03-11T11:50:51.655Z,30.69
2023-03-11T11:54:00.165Z,30.83
2023-03-11T11:56:38.057Z,30.42
2023-03-11T11:59:31.722Z,30.59
2023-03-11T12:06:55.466Z,30.54
2023-03-11T12:10:00.805Z,30.13
2023-03-11T12:13:04.720Z,30.14
2023-03-11T12:16:06.432Z,30.61
2023-03-11T12:23:26.376Z,30.85
2023-03-11T12:26:25.467Z,30.86
2023-03-11T12:29:28.940Z,30.71
2023-03-11T12:32:09.006Z,30.72
2023-03-11T12:34:43.806Z,30.85
2023-03-11T12:37:22.027Z,30.79
2023-03-11T12:39:53.348Z,31.09
2023-03-11T12:42:47.303Z,30.89
2023-03-11T12:45:58.816Z,31.34
2023-03-11T12:51:46.073Z,31.51
2023-03-11T12:54:44.814Z,31.63
2023-03-11T12:58:13.528Z,31.64
2023-03-11T13:01:15.894Z,31.70
2023-03-11T13:04:16.601Z,31.66
2023-03-11T13:06:54.216Z,31.27
2023-03-11T13:09:28.504Z,31.37
2023-03-11T13:12:01.288Z,31.51
2023-03-11T13:14:36.653Z,31.60
2023-03-11T13:17:28.548Z,31.88
2023-03-11T13:20:46.806Z,32.11
2023-03-11T13:23:18.256Z,31.08
2023-03-11T13:25:54.813Z,30.83
2023-03-11T13:29:05.967Z,31.70
2023-03-11T13:31:40.512Z,31.84
2023-03-11T13:34:50.315Z,31.69
2023-03-11T13:38:02.071Z,32.18
2023-03-11T13:40:46.956Z,32.34
2023-03-11T13:43:34.956Z,32.58
2023-03-11T13:46:27.856Z,32.58
2023-03-11T13:52:39.907Z,32.28
2023-03-11T13:58:39.730Z,32.74
2023-03-11T14:01:22.172Z,31.88
2023-03-11T14:04:11.757Z,31.57
2023-03-11T14:06:54.058Z,31.15
2023-03-11T14:10:30.863Z,30.92
2023-03-11T14:16:54.385Z,30.45
2023-03-11T14:20:39.409Z,30.58
2023-03-11T14:23:24.889Z,30.16
2023-03-11T14:26:31.135Z,30.42
2023-03-11T14:29:05.316Z,30.38
2023-03-11T14:31:47.243Z,30.25
2023-03-11T14:34:33.477Z,30.24
2023-03-11T14:37:06.219Z,30.16
2023-03-11T14:39:42.243Z,30.21
2023-03-11T14:42:31.924Z,30.24
2023-03-11T14:45:11.040Z,30.38
2023-03-11T14:47:51.610Z,30.37
2023-03-11T14:50:26.960Z,30.34
2023-03-11T14:53:06.463Z,30.16
2023-03-11T14:56:01.364Z,30.69
2023-03-11T14:59:23.741Z,30.52
2023-03-11T15:01:55.621Z,30.47
2023-03-11T15:04:50.390Z,30.41
2023-03-11T15:07:23.938Z,30.69
2023-03-11T15:09:55.487Z,30.62
2023-03-11T15:12:37.109Z,30.83
2023-03-11T15:15:33.622Z,31.08
2023-03-11T15:18:05.107Z,30.86
2023-03-11T15:20:39.103Z,31.33
2023-03-11T15:23:26.442Z,31.78
2023-03-11T15:26:00.316Z,31.95
2023-03-11T15:28:34.106Z,32.14
2023-03-11T15:31:24.765Z,32.14
2023-03-11T15:33:58.848Z,31.85
2023-03-11T15:36:41.696Z,32.07
2023-03-11T15:39:17.808Z,32.15
2023-03-11T15:42:00.977Z,32.00
2023-03-11T15:45:00.707Z,31.73
2023-03-11T15:47:35.995Z,31.83
2023-03-11T15:50:46.574Z,32.20
2023-03-11T15:53:22.311Z,31.87
2023-03-11T15:58:44.801Z,32.08
2023-03-11T16:01:19.803Z,32.28
2023-03-11T16:03:50.140Z,32.38
2023-03-11T16:06:21.351Z,32.15
2023-03-11T16:08:58.634Z,32.23
2023-03-11T16:11:33.914Z,32.18
2023-03-11T16:14:07.972Z,32.17
2023-03-11T16:16:40.993Z,31.87
2023-03-11T16:19:14.178Z,31.83
2023-03-11T16:21:48.862Z,32.04
2023-03-11T16:24:22.439Z,31.90
2023-03-11T16:26:54.124Z,31.98
2023-03-11T16:29:30.389Z,32.07
2023-03-11T16:32:00.603Z,31.84
2023-03-11T16:34:31.387Z,31.71
2023-03-11T16:37:04.659Z,31.97
2023-03-11T16:39:39.660Z,31.85
2023-03-11T16:42:16.365Z,32.28
2023-03-11T16:44:46.773Z,31.98
2023-03-11T16:47:17.669Z,32.03
2023-03-11T16:49:51.823Z,31.76
2023-03-11T16:52:23.838Z,31.98
2023-03-11T16:54:54.523Z,31.78
2023-03-11T16:57:24.690Z,31.77
2023-03-11T16:59:55.333Z,31.81
2023-03-11T17:02:25.743Z,31.90
2023-03-11T17:04:57.619Z,32.14
2023-03-11T17:07:34.191Z,32.00
2023-03-11T17:10:11.667Z,32.18
2023-03-11T17:16:14.253Z,32.15
2023-03-11T17:18:45.956Z,32.00
2023-03-11T17:21:35.341Z,31.85
2023-03-11T17:24:16.996Z,31.88
2023-03-11T17:27:01.645Z,32.01
2023-03-11T17:29:44.729Z,31.97
2023-03-11T17:35:03.525Z,31.84
2023-03-11T17:37:42.159Z,31.90
2023-03-11T17:40:22.509Z,31.88
2023-03-11T17:43:02.021Z,31.66
2023-03-11T17:45:32.907Z,31.53
2023-03-11T17:48:24.685Z,31.83
2023-03-11T17:50:59.991Z,31.56
2023-03-11T17:53:32.095Z,31.42
2023-03-11T17:56:32.197Z,31.13
2023-03-11T17:59:07.642Z,31.04
2023-03-11T18:01:41.429Z,31.06
2023-03-11T18:04:17.778Z,30.83
2023-03-11T18:07:41.834Z,30.88
2023-03-11T18:10:19.474Z,30.79
2023-03-11T18:13:10.186Z,30.79
2023-03-11T18:15:45.047Z,30.65
2023-03-11T18:18:34.389Z,30.65
2023-03-11T18:21:28.949Z,30.39
2023-03-11T18:24:10.985Z,30.24
2023-03-11T18:26:45.174Z,30.24
2023-03-11T18:29:16.053Z,30.21
2023-03-11T18:31:46.461Z,30.17
2023-03-11T18:34:19.387Z,30.32
2023-03-11T18:36:50.845Z,30.52
2023-03-11T18:39:22.780Z,30.48
2023-03-11T18:41:53.346Z,30.32
2023-03-11T18:44:29.794Z,30.31
2023-03-11T18:46:59.937Z,30.25
2023-03-11T18:49:30.609Z,30.23
2023-03-11T18:52:01.378Z,30.24
2023-03-11T18:54:31.748Z,30.03
2023-03-11T18:57:02.257Z,30.07
2023-03-11T18:59:32.441Z,30.06
2023-03-11T19:02:02.729Z,30.27
2023-03-11T19:04:36.644Z,30.14
2023-03-11T19:07:07.645Z,29.88
2023-03-11T19:10:01.631Z,30.24
2023-03-11T19:12:35.148Z,30.21
2023-03-11T19:15:08.878Z,30.20
2023-03-11T19:17:51.742Z,30.21
2023-03-11T19:20:28.424Z,30.17
2023-03-11T19:22:58.852Z,30.28
2023-03-11T19:25:28.953Z,30.28
2023-03-11T19:27:59.540Z,30.11
2023-03-11T19:30:31.369Z,30.11
2023-03-11T19:33:02.188Z,30.04
2023-03-11T19:35:33.303Z,30.13
2023-03-11T19:38:04.153Z,30.08
2023-03-11T19:40:35.114Z,30.03
2023-03-11T19:43:05.971Z,29.90
2023-03-11T19:45:36.490Z,29.86
2023-03-11T19:48:06.652Z,29.76
2023-03-11T19:50:37.278Z,29.76
2023-03-11T19:53:07.655Z,29.94
2023-03-11T19:55:37.913Z,29.87
2023-03-11T19:58:07.974Z,29.77
2023-03-11T20:00:38.109Z,29.59
2023-03-11T20:03:10.238Z,29.32
2023-03-11T20:05:48.525Z,29.09
2023-03-11T20:08:21.575Z,29.23
2023-03-11T20:18:02.583Z,28.90
2023-03-11T20:20:35.097Z,28.84
2023-03-11T20:23:06.229Z,28.84
2023-03-11T20:25:43.883Z,28.84
2023-03-11T20:28:14.331Z,28.78
2023-03-11T20:30:44.352Z,28.72
2023-03-11T20:33:15.034Z,28.62
2023-03-11T20:35:45.261Z,28.60
2023-03-11T20:38:16.845Z,28.57
2023-03-11T20:40:47.284Z,28.57
2023-03-11T20:43:18.286Z,28.48
2023-03-11T20:45:49.463Z,28.55
2023-03-11T20:48:19.776Z,28.44
2023-03-11T20:50:50.043Z,28.30
2023-03-11T20:53:21.562Z,28.39
2023-03-11T20:55:53.070Z,28.27
2023-03-11T20:58:23.549Z,28.17
2023-03-11T21:00:53.661Z,28.04
2023-03-11T21:03:25.720Z,28.04
2023-03-11T21:05:56.345Z,28.06
2023-03-11T21:08:29.164Z,28.09
2023-03-11T21:11:04.439Z,28.01
2023-03-11T21:13:37.340Z,27.86
2023-03-11T21:16:14.907Z,27.78
2023-03-11T21:18:49.310Z,27.70
2023-03-11T21:21:20.817Z,27.70
2023-03-11T21:23:51.371Z,27.66
2023-03-11T21:26:21.766Z,27.53
2023-03-11T21:28:55.758Z,27.46
2023-03-11T21:31:29.489Z,27.56
2023-03-11T21:34:11.634Z,27.55
2023-03-11T21:36:42.599Z,27.45
2023-03-11T21:39:13.803Z,27.46
2023-03-11T21:41:44.105Z,27.39
2023-03-11T21:44:14.578Z,27.37
2023-03-11T22:02:45.388Z,27.22
2023-03-11T22:05:18.162Z,27.16
2023-03-11T22:07:48.600Z,27.18
2023-03-11T22:10:20.750Z,27.18
2023-03-11T22:12:52.807Z,27.24
2023-03-11T22:15:26.921Z,27.18
2023-03-11T22:18:00.218Z,27.14
2023-03-11T22:20:30.969Z,27.12
2023-03-11T22:23:07.202Z,27.09
2023-03-11T22:25:39.067Z,27.07
2023-03-11T22:28:35.448Z,27.14
2023-03-11T22:31:15.706Z,27.08
2023-03-11T22:33:46.953Z,27.07
2023-03-11T22:36:17.458Z,27.04
2023-03-11T22:38:48.202Z,27.05
2023-03-11T22:41:21.107Z,26.99
2023-03-11T22:43:51.193Z,26.98
2023-03-11T22:46:21.330Z,26.95
2023-03-11T22:48:52.075Z,26.99
2023-03-11T22:51:23.214Z,27.01
2023-03-11T22:53:54.647Z,27.02
2023-03-11T22:56:25.622Z,27.04
2023-03-11T22:58:56.308Z,26.97
2023-03-11T23:01:26.369Z,27.01
2023-03-11T23:03:56.995Z,27.01
2023-03-11T23:06:29.040Z,26.97
2023-03-11T23:08:59.451Z,26.95
2023-03-11T23:11:29.591Z,26.91
2023-03-11T23:14:04.252Z,26.92
2023-03-11T23:16:34.730Z,26.88
2023-03-11T23:19:05.085Z,26.85
2023-03-11T23:21:35.811Z,26.85
2023-03-11T23:24:07.561Z,26.83
2023-03-11T23:26:39.288Z,26.85
2023-03-11T23:29:09.622Z,26.85
2023-03-11T23:31:39.739Z,26.83
2023-03-11T23:34:11.160Z,26.78
2023-03-11T23:36:41.523Z,26.83
2023-03-11T23:39:12.313Z,26.84
2023-03-11T23:41:42.726Z,26.90
2023-03-11T23:44:15.812Z,26.81
2023-03-11T23:46:46.350Z,26.88
2023-03-11T23:49:16.291Z,26.85
2023-03-11T23:51:46.378Z,26.81
2023-03-11T23:54:16.909Z,26.81
2023-03-11T23:57:09.055Z,26.84
